• Join FlightAware (Why Join?)
  • Login
  • US Flag 
12:00PM EDT


 

Airport Tracker/Info


-or-


 

Live Flight TrackerFlight Track Log ✈ GTI2618 ✈ 25-Jan-2013 ✈ KNUQ - EDFH / HHN

Flight Track Log - Related Links

Times and Time Zones

All times are in EST time to prevent confusion due to time zone crossing. See the GTI2618 flight status page for this flight to view local times or setup timezone preferences in your user account.

Time Position Orientation Groundspeed Altitude Reporting Facility
EST Latitude Longitude Course Direction KTS MPH feet Rate Location/Type
11:30PM 37.4500 -122.0500 112° Southeast 189 217 1,800  Level Northern Cal TRACON
11:31PM 37.4500 -121.9833 104° East 243 280 3,100 1,500 Climbing Northern Cal TRACON
11:32PM 37.4000 -121.9167 105° East 286 329 4,900 1,260 Climbing Northern Cal TRACON
11:33PM 37.3667 -121.8333 104° East 286 329 5,600 2,040 Climbing Northern Cal TRACON
11:34PM 37.3030 -121.7270 125° Southeast 305 351 9,700 2,640 Climbing FlightAware
11:35PM 37.2810 -121.6590 112° Southeast 339 390 11,100 1,800 Climbing FlightAware
11:36PM 37.2630 -121.5660 104° East 393 452 12,300 2,160 Climbing FlightAware
11:36PM 37.2450 -121.4810 105° East 411 473 14,200 2,760 Climbing FlightAware
11:37PM 37.2240 -121.3820 105° East 426 490 16,000 2,700 Climbing FlightAware
11:38PM 37.2020 -121.2750 104° East 439 505 18,100 2,640 Climbing FlightAware
11:38PM 37.1820 -121.1790 105° East 449 517 19,800 2,400 Climbing FlightAware
11:39PM 37.1580 -121.0670 105° East 460 529 21,500 1,200 Climbing FlightAware
11:40PM 37.1370 -120.9680 105° East 460 529 21,500 1,380 Level FlightAware
11:41PM 37.1110 -120.8480 105° East 472 543 23,500 1,380 Climbing FlightAware
11:41PM 37.0920 -120.7580 105° East 472 543 23,500 2,820 Level FlightAware
11:42PM 37.0730 -120.6190 100° East 497 572 27,300 3,480 Climbing FlightAware
11:43PM 37.1030 -120.4910 74° East 508 585 28,500 1,800 Climbing FlightAware
11:43PM 37.1430 -120.3740 67° East 509 586 29,900 2,040 Climbing FlightAware
11:44PM 37.1840 -120.2560 66° East 505 581 31,400 1,920 Climbing FlightAware
11:45PM 37.2230 -120.1430 67° East 503 579 32,700 1,740 Climbing FlightAware
11:45PM 37.2540 -120.0510 67° East 500 575 33,600 1,560 Climbing FlightAware
11:46PM 37.2900 -119.9400 68° East 497 572 34,700 960 Climbing FlightAware
11:47PM 37.3260 -119.8220 69° East 497 572 35,000 180 Climbing FlightAware
11:47PM 37.3600 -119.7130 69° East 496 571 35,000  Level FlightAware
11:48PM 37.3920 -119.6070 69° East 495 570 35,000  Level FlightAware
11:49PM 37.4280 -119.4890 69° East 494 568 35,000  Level FlightAware
11:50PM 37.4610 -119.3820 69° East 493 567 35,000  Level FlightAware
11:50PM 37.4980 -119.2600 69° East 493 567 35,000  Level FlightAware
11:51PM 37.5310 -119.1520 69° East 495 570 35,000  Level FlightAware
11:52PM 37.5680 -119.0280 69° East 497 572 35,000  Level FlightAware
11:52PM 37.5940 -118.9400 70° East 498 573 35,000  Level FlightAware
11:53PM 37.6300 -118.8240 69° East 500 575 35,000  Level FlightAware
11:54PM 37.6570 -118.7300 70° East 505 581 35,000  Level FlightAware
11:54PM 37.6950 -118.6010 70° East 510 587 35,000  Level FlightAware
11:55PM 37.7310 -118.4850 69° East 510 587 35,000  Level FlightAware
11:56PM 37.7590 -118.3910 69° East 510 587 35,000  Level FlightAware
11:57PM 37.7880 -118.2960 69° East 510 587 35,000  Level FlightAware
11:57PM 37.8240 -118.1770 69° East 510 587 35,000  Level FlightAware
11:58PM 37.8530 -118.0820 69° East 510 587 35,000  Level FlightAware
11:59PM 37.8820 -117.9880 69° East 510 587 35,000  Level FlightAware
11:59PM 37.9100 -117.8930 69° East 510 587 35,000  Level FlightAware
12:00AM 37.9753 -117.6389 69° East 535 616 35,000  Level Salt Lake Center
12:01AM 38.0367 -117.4247 70° East 539 620 35,000  Level Oakland Center
12:02AM 38.0864 -117.2475 70° East 540 621 35,000  Level Oakland Center
12:03AM 38.1331 -117.0808 70° East 540 621 35,000  Level Oakland Center
12:04AM 38.1836 -116.9011 70° East 548 631 35,000  Level Oakland Center
12:05AM 38.2328 -116.7206 71° East 544 626 35,000  Level Salt Lake Center
12:06AM 38.2828 -116.5378 71° East 547 629 35,000  Level Salt Lake Center
12:07AM 38.3322 -116.3544 71° East 548 631 35,000  Level Salt Lake Center
12:08AM 38.3844 -116.1694 70° East 551 634 35,000  Level Oakland Center
12:09AM 38.4342 -115.9856 71° East 550 633 35,000  Level Oakland Center
12:10AM 38.4819 -115.7997 72° East 551 634 35,000  Level Salt Lake Center
12:11AM 38.5411 -115.5769 71° East 552 635 35,000  Level Salt Lake Center
12:12AM 38.5900 -115.3908 71° East 553 636 35,000  Level Salt Lake Center
12:13AM 38.6372 -115.2092 72° East 554 638 35,000  Level Salt Lake Center
12:14AM 38.6844 -115.0228 72° East 553 636 35,000  Level Salt Lake Center
12:15AM 38.7344 -114.8347 71° East 553 636 35,000  Level Salt Lake Center
12:16AM 38.7828 -114.6447 72° East 558 642 35,000  Level Salt Lake Center
12:17AM 38.8306 -114.4583 72° East 554 638 35,000  Level Salt Lake Center
12:18AM 38.8775 -114.2700 72° East 554 638 35,000  Level Salt Lake Center
12:19AM 38.9250 -114.0822 72° East 554 638 35,000  Level Salt Lake Center
12:20AM 38.9711 -113.8933 73° East 554 638 35,000  Level Salt Lake Center
12:21AM 39.0169 -113.7064 72° East 551 634 35,000  Level Salt Lake Center
12:22AM 39.0714 -113.4811 73° East 550 633 35,000  Level Salt Lake Center
12:23AM 39.1169 -113.2936 73° East 549 632 35,000  Level Salt Lake Center
12:24AM 39.1619 -113.1069 73° East 548 631 35,000  Level Salt Lake Center
12:25AM 39.2064 -112.9189 73° East 548 631 35,000  Level Salt Lake Center
12:26AM 39.2506 -112.7306 73° East 548 631 35,000  Level Salt Lake Center
12:28AM 39.2894 -112.5625 73° East 549 632 35,000  Level Salt Lake Center
12:29AM 39.3242 -112.3328 73° East 546 628 35,000  Level Salt Lake Center
12:30AM 39.3456 -112.1394 82° East 547 629 35,000  Level Salt Lake Center
12:31AM 39.3675 -111.9458 83° East 547 629 35,000  Level Salt Lake Center
12:32AM 39.3883 -111.7514 83° East 549 632 35,000  Level Salt Lake Center
12:33AM 39.4089 -111.5561 83° East 550 633 35,000  Level Salt Lake Center
12:34AM 39.4300 -111.3450 73° East 552 635 35,000  Level FlightAware
12:34AM 39.4470 -111.1890 82° East 554 638 35,000  Level FlightAware
12:35AM 39.4506 -111.1594 83° East 551 634 35,000  Level Salt Lake Center
12:35AM 39.4600 -111.0600 83° East 554 638 35,000  Level FlightAware
12:36AM 39.4740 -110.9260 82° East 556 640 35,000  Level FlightAware
12:36AM 39.4870 -110.7930 83° East 556 640 35,000  Level FlightAware
12:37AM 39.5020 -110.6450 82° East 556 640 35,000  Level FlightAware
12:38AM 39.5160 -110.4990 83° East 556 640 35,000  Level FlightAware
12:39AM 39.5290 -110.3670 83° East 557 641 35,000  Level FlightAware
12:39AM 39.5410 -110.2410 83° East 558 642 35,000  Level FlightAware
12:40AM 39.5550 -110.0980 83° East 559 643 35,000  Level FlightAware
12:41AM 39.5670 -109.9680 83° East 559 643 35,000  Level FlightAware
12:41AM 39.5810 -109.8160 83° East 557 641 35,000  Level FlightAware
12:42AM 39.5930 -109.6840 83° East 556 640 35,000  Level FlightAware
12:43AM 39.6050 -109.5510 83° East 556 640 35,000  Level FlightAware
12:43AM 39.6180 -109.4000 84° East 555 639 35,000  Level FlightAware
12:44AM 39.6300 -109.2670 83° East 553 636 35,000  Level FlightAware
12:45AM 39.6410 -109.1320 84° East 549 632 35,000  Level FlightAware
12:46AM 39.6540 -108.9880 83° East 547 629 35,000  Level FlightAware
12:46AM 39.6670 -108.8330 84° East 546 628 35,000  Level FlightAware
12:47AM 39.6770 -108.7020 84° East 546 628 35,000  Level FlightAware
12:48AM 39.6890 -108.5560 84° East 545 627 35,000  Level FlightAware
12:48AM 39.7000 -108.4260 84° East 546 628 35,000  Level FlightAware
12:49AM 39.7090 -108.3010 85° East 549 632 35,000  Level FlightAware
12:50AM 39.7210 -108.1490 84° East 551 634 35,000  Level FlightAware
12:50AM 39.7310 -108.0180 84° East 552 635 35,000  Level FlightAware
12:51AM 39.7420 -107.8720 84° East 553 636 35,000  Level FlightAware
12:52AM 39.7520 -107.7360 84° East 553 636 35,000  Level FlightAware
12:53AM 39.7610 -107.6100 85° East 553 636 35,000  Level FlightAware
12:53AM 39.7720 -107.4650 84° East 551 634 35,000  Level FlightAware
12:54AM 39.7806 -107.3400 85° East 549 632 35,000  Level FlightAware ADS-B
12:54AM 39.7876 -107.2390 85° East 549 632 35,000  Level FlightAware ADS-B
12:55AM 39.7945 -107.1400 85° East 549 632 35,000  Level FlightAware ADS-B
12:55AM 39.8012 -107.0400 85° East 549 632 35,000  Level FlightAware ADS-B
12:56AM 39.8079 -106.9400 85° East 551 634 35,000  Level FlightAware ADS-B
12:56AM 39.8145 -106.8410 85° East 552 635 35,000  Level FlightAware ADS-B
12:57AM 39.8214 -106.7330 85° East 553 636 35,000  Level FlightAware ADS-B
12:57AM 39.8278 -106.6340 85° East 555 639 35,000  Level FlightAware ADS-B
12:58AM 39.8342 -106.5330 85° East 556 640 35,000  Level FlightAware ADS-B
12:59AM 39.8420 -106.4070 85° East 556 640 35,000  Level FlightAware ADS-B
12:59AM 39.8483 -106.3030 85° East 555 639 35,000  Level FlightAware ADS-B
01:00AM 39.8545 -106.2010 85° East 556 640 35,000  Level FlightAware ADS-B
01:00AM 39.8605 -106.0980 86° East 556 640 35,000  Level FlightAware ADS-B
01:01AM 39.8664 -105.9990 86° East 557 641 35,000  Level FlightAware ADS-B
01:01AM 39.8725 -105.8930 86° East 556 640 35,000  Level FlightAware ADS-B
01:02AM 39.8786 -105.7860 86° East 556 640 35,000  Level FlightAware ADS-B
01:02AM 39.8842 -105.6860 86° East 555 639 35,000  Level FlightAware ADS-B
01:03AM 39.8899 -105.5820 86° East 554 638 35,000  Level FlightAware ADS-B
01:03AM 39.8953 -105.4820 86° East 554 638 35,000  Level FlightAware ADS-B
01:04AM 39.9007 -105.3800 86° East 558 642 35,000  Level FlightAware ADS-B
01:04AM 39.9060 -105.2800 86° East 559 643 35,000  Level FlightAware ADS-B
01:05AM 39.9111 -105.1780 86° East 561 646 35,000  Level FlightAware ADS-B
01:05AM 39.9170 -105.0760 86° East 564 649 35,000  Level FlightAware ADS-B
01:06AM 39.9258 -104.9740 84° East 564 649 35,000  Level FlightAware ADS-B
01:06AM 39.9349 -104.8710 83° East 565 650 35,000  Level FlightAware ADS-B
01:07AM 39.9437 -104.7700 83° East 564 649 35,000  Level FlightAware ADS-B
01:07AM 39.9522 -104.6680 84° East 562 647 35,000  Level FlightAware ADS-B
01:08AM 39.9606 -104.5630 84° East 564 649 35,000  Level FlightAware ADS-B
01:08AM 39.9685 -104.4610 84° East 565 650 35,000  Level FlightAware ADS-B
01:09AM 39.9763 -104.3590 84° East 564 649 35,000  Level FlightAware ADS-B
01:09AM 39.9841 -104.2560 84° East 565 650 35,000  Level FlightAware ADS-B
01:10AM 39.9917 -104.1540 84° East 564 649 35,000  Level FlightAware ADS-B
01:10AM 39.9994 -104.0500 84° East 564 649 35,000  Level FlightAware ADS-B
01:11AM 40.0069 -103.9490 84° East 563 648 35,000  Level FlightAware ADS-B
01:11AM 40.0143 -103.8470 85° East 563 648 35,000  Level FlightAware ADS-B
01:12AM 40.0216 -103.7450 85° East 561 646 35,000  Level FlightAware ADS-B
01:12AM 40.0288 -103.6430 85° East 560 644 35,000  Level FlightAware ADS-B
01:13AM 40.0359 -103.5420 85° East 559 643 35,000  Level FlightAware ADS-B
01:13AM 40.0429 -103.4410 85° East 559 643 35,000  Level FlightAware ADS-B
01:14AM 40.0499 -103.3400 85° East 558 642 35,000  Level FlightAware ADS-B
01:14AM 40.0568 -103.2380 85° East 559 643 35,000  Level FlightAware ADS-B
01:15AM 40.0636 -103.1370 85° East 561 646 35,000  Level FlightAware ADS-B
01:15AM 40.0703 -103.0350 85° East 562 647 35,000  Level FlightAware ADS-B
01:16AM 40.0770 -102.9320 85° East 562 647 35,000  Level FlightAware ADS-B
01:16AM 40.0836 -102.8290 85° East 563 648 35,000  Level FlightAware ADS-B
01:17AM 40.0900 -102.7260 85° East 564 649 35,000  Level FlightAware ADS-B
01:17AM 40.0964 -102.6240 85° East 564 649 35,000  Level FlightAware ADS-B
01:18AM 40.1028 -102.5190 85° East 562 647 35,000  Level FlightAware ADS-B
01:18AM 40.1090 -102.4180 85° East 562 647 35,000  Level FlightAware ADS-B
01:19AM 40.1151 -102.3150 86° East 564 649 35,000  Level FlightAware ADS-B
01:19AM 40.1212 -102.2120 86° East 564 649 35,000  Level FlightAware ADS-B
01:20AM 40.1271 -102.1100 86° East 566 651 35,000  Level FlightAware ADS-B
01:20AM 40.1333 -102.0000 86° East 567 652 35,000  Level FlightAware ADS-B
01:21AM 40.1392 -101.8940 86° East 568 654 35,000  Level FlightAware ADS-B
01:21AM 40.1449 -101.7900 86° East 570 656 35,000  Level FlightAware ADS-B
01:22AM 40.1506 -101.6860 86° East 571 657 35,000  Level FlightAware ADS-B
01:22AM 40.1561 -101.5810 86° East 571 657 35,000  Level FlightAware ADS-B
01:23AM 40.1616 -101.4780 86° East 572 658 35,000  Level FlightAware ADS-B
01:23AM 40.1669 -101.3730 86° East 573 659 35,000  Level FlightAware ADS-B
01:24AM 40.1723 -101.2680 86° East 573 659 35,000  Level FlightAware ADS-B
01:24AM 40.1775 -101.1610 86° East 572 658 35,000  Level FlightAware ADS-B
01:26AM 40.1872 -100.9606 86° East 570 656 35,000  Level Denver Center
01:27AM 40.1969 -100.7317 87° East 569 655 35,000  Level Denver Center
01:28AM 40.2067 -100.5019 87° East 570 656 35,000  Level Denver Center
01:29AM 40.2092 -100.2717 89° East 571 657 35,000  Level Denver Center
01:30AM 40.2111 -100.0739 89° East 570 656 35,000  Level Denver Center
01:31AM 40.2144 -99.8603 89° East 571 657 35,000  Level Denver Center
01:32AM 40.2169 -99.6533 89° East 571 657 35,000  Level Denver Center
01:33AM 40.2189 -99.4467 89° East 570 656 35,000  Level Denver Center
01:34AM 40.2206 -99.2408 89° East 569 655 35,000  Level Denver Center
01:35AM 40.2214 -99.0336 90° East 570 656 35,000  Level Denver Center
01:36AM 40.2217 -98.8706 90° East 570 656 35,000  Level Minneapolis Center
01:37AM 40.2222 -98.6239 90° East 568 654 35,000  Level Minneapolis Center
01:38AM 40.2222 -98.4183 90° East 568 654 35,000  Level Minneapolis Center
01:39AM 40.2217 -98.2133 90° East 567 652 35,000  Level Minneapolis Center
01:40AM 40.2206 -98.0078 90° East 567 652 35,000  Level Minneapolis Center
01:41AM 40.2203 -97.8022 90° East 567 652 35,000  Level Minneapolis Center
01:42AM 40.2189 -97.5961 90° East 568 654 35,000  Level Minneapolis Center
01:43AM 40.2172 -97.3919 91° East 565 650 35,000  Level Minneapolis Center
01:44AM 40.2153 -97.2242 91° East 565 650 35,000  Level Minneapolis Center
01:45AM 40.2128 -96.9786 91° East 565 650 35,000  Level Minneapolis Center
01:46AM 40.2092 -96.7736 91° East 565 650 35,000  Level Minneapolis Center
01:47AM 40.2067 -96.5697 91° East 564 649 35,000  Level Minneapolis Center
01:48AM 40.2033 -96.3675 91° East 562 647 35,000  Level Minneapolis Center
01:49AM 40.2056 -96.1672 89° East 557 641 35,000  Level Minneapolis Center
01:50AM 40.2403 -95.9714 77° East 557 641 35,000  Level Minneapolis Center
01:51AM 40.2792 -95.7747 75° East 559 643 35,000  Level Minneapolis Center
01:52AM 40.3153 -95.5831 76° East 554 638 35,000  Level Minneapolis Center
01:53AM 40.3517 -95.3853 76° East 555 639 35,000  Level Minneapolis Center
01:54AM 40.3861 -95.1914 77° East 553 636 35,000  Level Minneapolis Center
01:55AM 40.4211 -94.9950 77° East 554 638 35,000  Level Minneapolis Center
01:56AM 40.4558 -94.8003 77° East 552 635 35,000  Level Minneapolis Center
01:57AM 40.4900 -94.6061 77° East 549 632 35,000  Level Minneapolis Center
01:58AM 40.5217 -94.4175 77° East 548 631 35,000  Level Minneapolis Center
01:59AM 40.5544 -94.2236 79° East 547 629 35,000  Level Minneapolis Center
02:00AM 40.5858 -94.0314 79° East 544 626 35,000  Level Minneapolis Center
02:01AM 40.6117 -93.8361 80° East 546 628 35,000  Level Minneapolis Center
02:03AM 40.6720 -93.4630 77° East 540 621 35,000  Level FlightAware
02:03AM 40.6930 -93.3200 79° East 539 620 35,000  Level FlightAware
02:04AM 40.7110 -93.1870 80° East 536 617 35,000  Level FlightAware
02:05AM 40.7310 -93.0470 79° East 534 615 35,000  Level FlightAware
02:06AM 40.7480 -92.9160 80° East 532 612 35,000  Level FlightAware
02:06AM 40.7650 -92.7910 80° East 531 611 35,000  Level FlightAware
02:07AM 40.7840 -92.6580 79° East 530 610 35,000  Level FlightAware
02:08AM 40.8020 -92.5220 80° East 529 609 35,000  Level FlightAware
02:08AM 40.8170 -92.4130 80° East 527 606 35,000  Level FlightAware
02:09AM 40.8380 -92.2510 80° East 526 605 35,000  Level FlightAware
02:10AM 40.8540 -92.1310 80° East 525 604 35,000  Level FlightAware
02:10AM 40.8730 -91.9860 80° East 523 602 35,000  Level FlightAware
02:11AM 40.8880 -91.8720 80° East 521 600 35,000  Level FlightAware
02:12AM 40.9040 -91.7460 80° East 518 596 35,000  Level FlightAware
02:12AM 40.9210 -91.6130 80° East 517 595 35,000  Level FlightAware
02:13AM 40.9370 -91.4890 80° East 517 595 35,000  Level FlightAware
02:14AM 40.9490 -91.3920 81° East 517 595 35,000  Level FlightAware
02:14AM 40.9640 -91.2690 81° East 519 597 35,000  Level FlightAware
02:15AM 40.9800 -91.1450 80° East 519 597 35,000  Level FlightAware
02:16AM 40.9950 -91.0160 81° East 520 598 35,000  Level FlightAware
02:16AM 41.0130 -90.8730 80° East 522 601 35,000  Level FlightAware
02:17AM 41.0220 -90.7340 85° East 526 605 35,000  Level FlightAware
02:18AM 41.0280 -90.6040 86° East 528 608 35,000  Level FlightAware
02:18AM 41.0310 -90.4740 88° East 529 609 35,000  Level FlightAware
02:19AM 41.0350 -90.3250 88° East 530 610 35,000  Level FlightAware
02:20AM 41.0380 -90.1950 88° East 532 612 35,000  Level FlightAware
02:21AM 41.0400 -90.0660 89° East 533 613 35,000  Level FlightAware
02:21AM 41.0430 -89.9240 88° East 534 615 35,000  Level FlightAware
02:22AM 41.0460 -89.7750 88° East 535 616 35,000  Level FlightAware
02:23AM 41.0480 -89.6430 89° East 536 617 35,000  Level FlightAware
02:23AM 41.0510 -89.5100 88° East 537 618 35,000  Level FlightAware
02:24AM 41.0530 -89.3770 89° East 538 619 35,000  Level FlightAware
02:25AM 41.0550 -89.2360 89° East 538 619 35,000  Level FlightAware
02:26AM 41.0570 -89.0860 89° East 540 621 35,000  Level FlightAware
02:26AM 41.0580 -88.9500 89° East 542 624 35,000  Level FlightAware
02:27AM 41.0600 -88.8190 89° East 543 625 35,000  Level FlightAware
02:28AM 41.0610 -88.6710 89° East 544 626 35,000  Level FlightAware
02:28AM 41.0620 -88.5400 89° East 544 626 35,000  Level FlightAware
02:29AM 41.0630 -88.4060 89° East 544 626 35,000  Level FlightAware
02:30AM 41.0640 -88.2540 89° East 545 627 35,000  Level FlightAware
02:30AM 41.0650 -88.1180 89° East 548 631 35,000  Level FlightAware
02:31AM 41.0650 -87.9680 90° East 550 633 35,000  Level FlightAware
02:32AM 41.0650 -87.8390 90° East 551 634 35,000  Level FlightAware
02:32AM 41.0650 -87.7170 90° East 552 635 35,000  Level FlightAware
02:33AM 41.0650 -87.5460 90° East 553 636 35,000  Level FlightAware
02:34AM 41.0650 -87.4210 90° East 554 638 35,000  Level FlightAware
02:35AM 41.0650 -87.2640 90° East 556 640 35,000  Level FlightAware
02:35AM 41.0640 -87.1280 91° East 557 641 35,000  Level FlightAware
02:36AM 41.0640 -86.9710 90° East 558 642 35,000  Level FlightAware
02:37AM 41.0630 -86.8330 91° East 559 643 35,000  Level FlightAware
02:37AM 41.0620 -86.6980 91° East 560 644 35,000  Level FlightAware
02:38AM 41.0600 -86.5460 91° East 561 646 35,000  Level FlightAware
02:39AM 41.0590 -86.4040 90° East 562 647 35,000  Level FlightAware
02:39AM 41.0570 -86.2730 91° East 563 648 35,000  Level FlightAware
02:40AM 41.0550 -86.1220 91° East 564 649 35,000  Level FlightAware
02:41AM 41.0530 -85.9750 91° East 565 650 35,000  Level FlightAware
02:42AM 41.0510 -85.8230 91° East 566 651 35,000  Level FlightAware
02:42AM 41.0490 -85.6930 91° East 567 652 35,000  Level FlightAware
02:43AM 41.0460 -85.5240 91° East 567 652 35,000  Level FlightAware
02:44AM 41.0440 -85.3900 91° East 567 652 35,000  Level FlightAware
02:44AM 41.0410 -85.2530 92° East 569 655 35,000  Level FlightAware
02:45AM 41.0370 -85.1010 92° East 572 658 35,000  Level FlightAware
02:46AM 41.0370 -84.9510 90° East 571 657 35,000  Level FlightAware
02:46AM 41.0400 -84.8150 88° East 572 658 35,000  Level FlightAware
02:47AM 41.0420 -84.6600 89° East 574 661 35,000  Level FlightAware
02:48AM 41.0440 -84.5210 89° East 575 662 35,000  Level FlightAware
02:49AM 41.0450 -84.3600 89° East 576 663 35,000  Level FlightAware
02:49AM 41.0460 -84.2180 89° East 577 664 35,000  Level FlightAware
02:50AM 41.0470 -84.0780 89° East 579 666 35,000  Level FlightAware
02:51AM 41.0470 -83.9220 90° East 580 667 35,000  Level FlightAware
02:51AM 41.0470 -83.7790 90° East 581 669 35,000  Level FlightAware
02:52AM 41.0480 -83.6150 89° East 582 670 35,000  Level FlightAware
02:53AM 41.0480 -83.4730 90° East 584 672 35,000  Level FlightAware
02:53AM 41.0480 -83.3270 90° East 587 676 35,000  Level FlightAware
02:54AM 41.0470 -83.1770 90° East 590 679 35,000  Level FlightAware
02:55AM 41.0470 -83.0460 90° East 592 681 35,000  Level FlightAware
02:56AM 41.0460 -82.8720 90° East 595 685 35,000  Level FlightAware
02:56AM 41.0450 -82.7140 90° East 598 688 35,000  Level FlightAware
02:57AM 41.0440 -82.5810 91° East 600 690 35,000  Level FlightAware
02:58AM 41.0420 -82.4040 91° East 602 693 35,000  Level FlightAware
02:58AM 41.0410 -82.2560 90° East 603 694 35,000  Level FlightAware
02:59AM 41.0400 -82.1460 91° East 602 693 35,000  Level FlightAware
03:00AM 41.0380 -81.9970 91° East 600 690 35,000  Level FlightAware
03:00AM 41.0350 -81.8300 91° East 598 688 35,000  Level FlightAware
03:01AM 41.0330 -81.6910 91° East 596 686 35,000  Level FlightAware
03:02AM 41.0310 -81.5440 91° East 596 686 35,000  Level FlightAware
03:02AM 41.0280 -81.3800 91° East 595 685 35,000  Level FlightAware
03:03AM 41.0250 -81.2330 92° East 594 684 35,000  Level FlightAware
03:04AM 41.0220 -81.0880 92° East 591 680 35,000  Level FlightAware
03:04AM 41.0190 -80.9320 91° East 588 677 35,000  Level FlightAware
03:05AM 41.0150 -80.7850 92° East 587 676 35,000  Level FlightAware
03:06AM 41.0110 -80.6190 92° East 587 676 35,000 360 Level FlightAware
03:07AM 41.0070 -80.4560 92° East 589 678 35,600 1,260 Climbing FlightAware
03:07AM 41.0030 -80.3210 92° East 572 658 36,800 1,020 Climbing FlightAware
03:08AM 40.9990 -80.1820 92° East 569 655 37,000 120 Climbing FlightAware
03:09AM 40.9950 -80.0240 92° East 568 654 37,000  Level FlightAware
03:09AM 40.9900 -79.8850 93° East 567 652 37,000  Level FlightAware
03:10AM 40.9860 -79.7460 92° East 566 651 37,000  Level FlightAware
03:11AM 40.9810 -79.5880 92° East 565 650 37,000  Level FlightAware
03:11AM 40.9760 -79.4680 93° East 565 650 37,000  Level FlightAware
03:12AM 40.9700 -79.2770 92° East 565 650 37,000  Level FlightAware
03:13AM 40.9650 -79.1450 93° East 562 647 37,000  Level FlightAware
03:14AM 40.9580 -78.9840 93° East 560 644 37,000  Level FlightAware
03:14AM 40.9530 -78.8520 93° East 559 643 37,000  Level FlightAware
03:15AM 40.9440 -78.6390 93° East 561 646 37,000  Level FlightAware
03:16AM 40.9390 -78.5090 93° East 562 647 37,000  Level FlightAware
03:17AM 40.9340 -78.4030 94° East 562 647 37,000  Level FlightAware
03:18AM 40.9280 -78.2570 93° East 562 647 37,000  Level FlightAware
03:18AM 40.9176 -78.0526 94° East 566 651 37,000  Level FlightAware ADS-B
03:19AM 40.9125 -77.9456 94° East 568 654 37,000  Level FlightAware ADS-B
03:19AM 40.9073 -77.8400 94° East 566 651 37,000  Level FlightAware ADS-B
03:20AM 40.9021 -77.7340 94° East 566 651 37,000  Level FlightAware ADS-B
03:20AM 40.8967 -77.6275 94° East 568 654 37,000  Level FlightAware ADS-B
03:21AM 40.8911 -77.5211 94° East 568 654 37,000  Level FlightAware ADS-B
03:21AM 40.8856 -77.4176 94° East 567 652 37,000  Level FlightAware ADS-B
03:22AM 40.8800 -77.3120 94° East 568 654 37,000  Level FlightAware ADS-B
03:22AM 40.8742 -77.2078 94° East 567 652 37,000  Level FlightAware ADS-B
03:23AM 40.8681 -77.0985 94° East 568 654 37,000  Level FlightAware ADS-B
03:23AM 40.8622 -76.9940 94° East 568 654 37,000  Level FlightAware ADS-B
03:24AM 40.8562 -76.8887 94° East 567 652 37,000  Level FlightAware ADS-B
03:24AM 40.8501 -76.7836 94° East 567 652 37,000  Level FlightAware ADS-B
03:25AM 40.8439 -76.6787 94° East 567 652 37,000  Level FlightAware ADS-B
03:25AM 40.8377 -76.5752 94° East 566 651 37,000  Level FlightAware ADS-B
03:26AM 40.8313 -76.4701 95° East 566 651 37,000  Level FlightAware ADS-B
03:26AM 40.8248 -76.3668 95° East 566 651 37,000  Level FlightAware ADS-B
03:27AM 40.8183 -76.2632 95° East 565 650 37,000  Level FlightAware ADS-B
03:27AM 40.8117 -76.1601 95° East 564 649 37,000  Level FlightAware ADS-B
03:28AM 40.8050 -76.0563 95° East 563 648 37,000  Level FlightAware ADS-B
03:28AM 40.7982 -75.9535 95° East 563 648 37,000  Level FlightAware ADS-B
03:29AM 40.7914 -75.8502 95° East 564 649 37,000  Level FlightAware ADS-B
03:29AM 40.7844 -75.7464 95° East 563 648 37,000  Level FlightAware ADS-B
03:30AM 40.7773 -75.6432 95° East 564 649 37,000  Level FlightAware ADS-B
03:30AM 40.7701 -75.5397 95° East 563 648 37,000  Level FlightAware ADS-B
03:31AM 40.7630 -75.4369 95° East 564 649 37,000  Level FlightAware ADS-B
03:31AM 40.7557 -75.3345 95° East 563 648 37,000  Level FlightAware ADS-B
03:32AM 40.7482 -75.2303 95° East 565 650 37,000  Level FlightAware ADS-B
03:32AM 40.7406 -75.1273 96° East 564 649 37,000  Level FlightAware ADS-B
03:33AM 40.7330 -75.0244 96° East 565 650 37,000  Level FlightAware ADS-B
03:33AM 40.7253 -74.9203 96° East 564 649 37,000  Level FlightAware ADS-B
03:34AM 40.7175 -74.8170 96° East 565 650 37,000  Level FlightAware ADS-B
03:34AM 40.7095 -74.7137 96° East 563 648 37,000  Level FlightAware ADS-B
03:35AM 40.7012 -74.6063 96° East 564 649 37,000  Level FlightAware ADS-B
03:35AM 40.6931 -74.5027 96° East 563 648 37,000  Level FlightAware ADS-B
03:36AM 40.6913 -74.4707 94° East 563 648 37,000  Level FlightAware ADS-B
03:36AM 40.6975 -74.3671 85° East 560 644 37,000  Level FlightAware ADS-B
03:37AM 40.7076 -74.2661 82° East 559 643 37,000  Level FlightAware ADS-B
03:37AM 40.7124 -74.2139 83° East 559 643 37,000  Level FlightAware ADS-B
03:37AM 40.7168 -74.1646 83° East 559 643 37,000  Level FlightAware ADS-B
03:38AM 40.7248 -74.0620 84° East 560 644 37,000  Level FlightAware ADS-B
03:38AM 40.7320 -73.9594 85° East 559 643 37,000  Level FlightAware ADS-B
03:39AM 40.7386 -73.8570 85° East 560 644 37,000  Level FlightAware ADS-B
03:39AM 40.7447 -73.7587 85° East 559 643 37,000  Level FlightAware ADS-B
03:40AM 40.7528 -73.6559 84° East 560 644 37,000  Level FlightAware ADS-B
03:40AM 40.7616 -73.5536 83° East 558 642 37,000  Level FlightAware ADS-B
03:41AM 40.7701 -73.4510 84° East 558 642 37,000  Level FlightAware ADS-B
03:41AM 40.7786 -73.3473 84° East 558 642 37,000  Level FlightAware ADS-B
03:42AM 40.7869 -73.2444 84° East 558 642 37,000  Level FlightAware ADS-B
03:42AM 40.7951 -73.1417 84° East 558 642 37,000  Level FlightAware ADS-B
03:43AM 40.8030 -73.0400 84° East 558 642 37,000  Level FlightAware ADS-B
03:43AM 40.8110 -72.9374 84° East 558 642 37,000  Level FlightAware ADS-B
03:44AM 40.8187 -72.8349 84° East 559 643 37,000  Level FlightAware ADS-B
03:44AM 40.8264 -72.7331 84° East 559 643 37,000  Level FlightAware ADS-B
03:45AM 40.8341 -72.6311 84° East 560 644 37,000  Level FlightAware ADS-B
03:45AM 40.8417 -72.5287 84° East 560 644 37,000  Level FlightAware ADS-B
03:46AM 40.8492 -72.4266 84° East 560 644 37,000  Level FlightAware ADS-B
03:46AM 40.8565 -72.3249 85° East 559 643 37,000  Level FlightAware ADS-B
03:47AM 40.8639 -72.2220 85° East 558 642 37,000  Level FlightAware ADS-B
03:47AM 40.8713 -72.1185 85° East 558 642 37,000  Level FlightAware ADS-B
03:48AM 40.8785 -72.0158 85° East 559 643 37,000  Level FlightAware ADS-B
03:48AM 40.8857 -71.9127 85° East 559 643 37,000  Level FlightAware ADS-B
03:49AM 40.8926 -71.8104 85° East 560 644 37,000  Level FlightAware ADS-B
03:49AM 40.8995 -71.7076 85° East 559 643 37,000  Level FlightAware ADS-B
03:50AM 40.9067 -71.6002 85° East 560 644 37,000  Level FlightAware ADS-B
03:50AM 40.9138 -71.4918 85° East 561 646 37,000  Level FlightAware ADS-B
03:51AM 40.9203 -71.3897 85° East 560 644 37,000  Level FlightAware ADS-B
03:51AM 40.9270 -71.2838 85° East 561 646 37,000  Level FlightAware ADS-B
03:52AM 40.9336 -71.1795 85° East 561 646 37,000  Level FlightAware ADS-B
03:52AM 40.9400 -71.0756 85° East 561 646 37,000  Level FlightAware ADS-B
03:53AM 40.9501 -70.9083 85° East 562 647 37,000  Level FlightAware ADS-B
03:54AM 40.9567 -70.7971 85° East 563 648 37,000 480 Level FlightAware ADS-B
03:55AM 40.9690 -70.5780 86° East 566 651 37,900 960 Climbing FlightAware
03:56AM 40.9790 -70.4070 86° East 565 650 38,900 720 Climbing FlightAware
03:56AM 40.9860 -70.2830 86° East 567 652 39,000 60 Climbing FlightAware
03:57AM 40.9940 -70.1320 86° East 568 654 39,000  Level FlightAware
03:58AM 41.0020 -69.9870 86° East 569 655 39,000  Level FlightAware
03:58AM 41.0080 -69.8710 86° East 569 655 39,000  Level FlightAware
03:59AM 41.0140 -69.7530 86° East 569 655 39,000  Level FlightAware
04:00AM 41.0220 -69.6050 86° East 569 655 39,000  Level FlightAware
04:00AM 41.0280 -69.4870 86° East 569 655 39,000  Level FlightAware
04:01AM 41.0311 -69.3008 86° East 566 651 39,000 -120 Level New York Center
04:02AM 41.0411 -69.0944 86° East 566 651 38,900 -60 Descending New York Center
04:03AM 41.0506 -68.8850 87° East 566 651 38,900  Level New York Center
04:04AM 41.0594 -68.6758 87° East 566 651 39,000  Climbing New York Center
04:05AM 41.0683 -68.4664 87° East 571 657 38,900 -60 Descending New York Center
04:06AM 41.0786 -68.2542 86° East 571 657 38,900  Level New York Center
04:07AM 41.0847 -68.0447 88° East 571 657 39,000  Climbing New York Center
04:08AM 41.0881 -67.8328 89° East 571 657 39,000 -60 Level New York Center
04:09AM 41.0972 -67.6203 87° East 571 657 38,900 -60 Descending New York Center
04:10AM 41.1022 -67.4108 88° East 571 657 38,900  Level New York Center
04:11AM 41.1086 -67.1986 88° East 571 657 39,000  Climbing New York Center
04:12AM 41.1167 -67.0000 78° East 571 657 39,000  Level New York Oceanic (ODAPS)
04:13AM 41.1475 -66.7806 78° East 576 663 39,000  Level New York Center
04:15AM 41.1736 -66.5122 78° East  Level FlightAware Approximate
04:16AM 41.2500 -66.1667 79° East 576 663 39,000  Level New York Oceanic (ODAPS)
04:19AM 41.3500 -65.5000 79° East 576 663 39,000  Level New York Oceanic (ODAPS)
04:20AM 41.3500 -65.5000 79° East 576 663 39,000  Level New York Oceanic (ODAPS)
04:22AM 41.4262 -64.9453 80° East 576 663 39,000  Level FlightAware Transoceanic
04:23AM 41.4544 -64.7411 80° East 576 663 39,000  Level FlightAware Transoceanic
04:24AM 41.4821 -64.5367 80° East 576 663 39,000  Level FlightAware Transoceanic
04:25AM 41.4953 -64.4513 80° East 576 663 39,000  Level FlightAware Transoceanic
04:26AM 41.5232 -64.2410 80° East 576 663 39,000  Level FlightAware Transoceanic
04:27AM 41.5507 -64.0305 80° East 576 663 39,000  Level FlightAware Transoceanic
04:28AM 41.5779 -63.8198 80° East 576 663 39,000  Level FlightAware Transoceanic
04:29AM 41.6046 -63.6090 80° East 576 663 39,000  Level FlightAware Transoceanic
04:30AM 41.6310 -63.3979 81° East 576 663 39,000  Level FlightAware Transoceanic
04:30AM 41.6333 -63.2833 80° East 566 651 39,000  Level New York Oceanic (ODAPS)
04:31AM 41.6570 -63.1868 81° East 576 663 39,000  Level FlightAware Transoceanic
04:32AM 41.6826 -62.9754 81° East 576 663 39,000  Level FlightAware Transoceanic
04:33AM 41.7078 -62.7639 81° East 576 663 39,000  Level FlightAware Transoceanic
04:34AM 41.7326 -62.5522 81° East 576 663 39,000  Level FlightAware Transoceanic
04:35AM 41.7570 -62.3404 81° East 576 663 39,000  Level FlightAware Transoceanic
04:36AM 41.7818 -62.0565 81° East 566 651 39,000  Level FlightAware Transoceanic
04:37AM 41.8052 -61.8515 81° East 566 651 39,000  Level FlightAware Transoceanic
04:38AM 41.8284 -61.6464 81° East 566 651 39,000  Level FlightAware Transoceanic
04:39AM 41.8511 -61.4411 82° East 566 651 39,000  Level FlightAware Transoceanic
04:40AM 41.8735 -61.2356 82° East 566 651 39,000  Level FlightAware Transoceanic
04:41AM 41.8955 -61.0300 82° East 566 651 39,000  Level FlightAware Transoceanic
04:42AM 41.9171 -60.8243 82° East 566 651 39,000  Level FlightAware Transoceanic
04:43AM 41.9384 -60.6184 82° East 566 651 39,000  Level FlightAware Transoceanic
04:44AM 41.9593 -60.4124 82° East 566 651 39,000  Level FlightAware Transoceanic
04:44AM 41.9667 -60.3833 83° East 583 671 39,000  Level New York Oceanic (ODAPS)
04:45AM 41.9798 -60.2063 82° East 566 651 39,000  Level FlightAware Transoceanic
04:46AM 42.0000 -60.0000 79° East 566 651 39,000  Level FlightAware Transoceanic
04:46AM 42.0000 -60.0000 79° East 593 682 39,000  Level New York Oceanic (ODAPS)
04:47AM 42.0316 -59.7817 79° East 566 651 39,000  Level FlightAware Transoceanic
04:48AM 42.0627 -59.5632 79° East 566 651 39,000  Level FlightAware Transoceanic
04:49AM 42.0935 -59.3444 79° East 566 651 39,000  Level FlightAware Transoceanic
04:50AM 42.1238 -59.1255 79° East 583 671 39,000  Level FlightAware Transoceanic
04:51AM 42.1537 -58.9063 80° East 583 671 39,000  Level FlightAware Transoceanic
04:52AM 42.1832 -58.6870 80° East 593 682 39,000  Level FlightAware Transoceanic
04:53AM 42.2123 -58.4674 80° East 593 682 39,000  Level FlightAware Transoceanic
04:54AM 42.2409 -58.2476 80° East 593 682 39,000  Level FlightAware Transoceanic
04:55AM 42.2691 -58.0277 80° East 593 682 39,000  Level FlightAware Transoceanic
04:56AM 42.2970 -57.8075 80° East 593 682 39,000  Level FlightAware Transoceanic
04:57AM 42.3243 -57.5872 81° East 593 682 39,000  Level FlightAware Transoceanic
04:58AM 42.3513 -57.3666 81° East 593 682 39,000  Level FlightAware Transoceanic
04:58AM 42.3500 -57.3833 81° East 598 688 39,000  Level New York Oceanic (ODAPS)
04:59AM 42.3779 -57.1459 81° East 593 682 39,000  Level FlightAware Transoceanic
05:00AM 42.4040 -56.9250 81° East 593 682 39,000  Level FlightAware Transoceanic
05:01AM 42.4297 -56.7039 81° East 593 682 39,000  Level FlightAware Transoceanic
05:02AM 42.4550 -56.4826 81° East 593 682 39,000  Level FlightAware Transoceanic
05:03AM 42.4798 -56.2611 81° East 593 682 39,000  Level FlightAware Transoceanic
05:04AM 42.5033 -56.0532 82° East 598 688 39,000  Level FlightAware Transoceanic
05:05AM 42.5274 -55.8309 82° East 598 688 39,000  Level FlightAware Transoceanic
05:06AM 42.5510 -55.6085 82° East 598 688 39,000  Level FlightAware Transoceanic
05:07AM 42.5742 -55.3858 82° East 598 688 39,000  Level FlightAware Transoceanic
05:08AM 42.5969 -55.1630 82° East 598 688 39,000  Level FlightAware Transoceanic
05:09AM 42.6193 -54.9401 82° East 598 688 39,000  Level FlightAware Transoceanic
05:10AM 42.6412 -54.7169 82° East 598 688 39,000  Level FlightAware Transoceanic
05:11AM 42.6626 -54.4937 83° East 598 688 39,000  Level FlightAware Transoceanic
05:12AM 42.6836 -54.2702 83° East 598 688 39,000  Level FlightAware Transoceanic
05:12AM 42.6833 -54.3333 83° East 598 688 39,000  Level New York Oceanic (ODAPS)
05:13AM 42.7042 -54.0466 83° East 598 688 39,000  Level FlightAware Transoceanic
05:14AM 42.7244 -53.8229 83° East 598 688 39,000  Level FlightAware Transoceanic
05:15AM 42.7441 -53.5990 83° East 598 688 39,000  Level FlightAware Transoceanic
05:16AM 42.7634 -53.3750 83° East 598 688 39,000  Level FlightAware Transoceanic
05:17AM 42.7823 -53.1509 84° East 598 688 39,000  Level FlightAware Transoceanic
05:18AM 42.8010 -52.9699 84° East 598 688 39,000  Level FlightAware Transoceanic
05:19AM 42.8190 -52.7421 84° East 598 688 39,000  Level FlightAware Transoceanic
05:20AM 42.8366 -52.5143 84° East 598 688 39,000  Level FlightAware Transoceanic
05:21AM 42.8537 -52.2863 84° East 598 688 39,000  Level FlightAware Transoceanic
05:22AM 42.8704 -52.0582 84° East 598 688 39,000  Level FlightAware Transoceanic
05:23AM 42.8866 -51.8299 85° East 598 688 39,000  Level FlightAware Transoceanic
05:24AM 42.9024 -51.6016 85° East 598 688 39,000  Level FlightAware Transoceanic
05:25AM 42.9177 -51.3731 85° East 598 688 39,000  Level FlightAware Transoceanic
05:26AM 42.9325 -51.1445 85° East 598 688 39,000  Level FlightAware Transoceanic
05:26AM 42.9333 -51.2333 85° East 600 690 39,000  Level New York Oceanic (ODAPS)
05:27AM 42.9469 -50.9158 85° East 598 688 39,000  Level FlightAware Transoceanic
05:28AM 42.9609 -50.6870 85° East 598 688 39,000  Level FlightAware Transoceanic
05:29AM 42.9744 -50.4581 85° East 598 688 39,000  Level FlightAware Transoceanic
05:30AM 42.9874 -50.2291 86° East 598 688 39,000  Level FlightAware Transoceanic
05:31AM 43.0000 -50.0000 64° Northeast 598 688 39,000  Level FlightAware Transoceanic
05:32AM 43.0726 -49.7981 64° Northeast 600 690 39,000  Level FlightAware Transoceanic
05:33AM 43.1449 -49.5957 64° Northeast 600 690 39,000  Level FlightAware Transoceanic
05:34AM 43.2168 -49.3928 64° Northeast 600 690 39,000  Level FlightAware Transoceanic
05:35AM 43.2883 -49.1895 64° Northeast 600 690 39,000  Level FlightAware Transoceanic
05:36AM 43.3595 -48.9856 64° Northeast 600 690 39,000  Level FlightAware Transoceanic
05:37AM 43.4303 -48.7813 65° Northeast 600 690 39,000  Level FlightAware Transoceanic
05:38AM 43.5008 -48.5765 65° Northeast 600 690 39,000  Level FlightAware Transoceanic
05:39AM 43.5709 -48.3713 65° Northeast 600 690 39,000  Level FlightAware Transoceanic
05:39AM 43.6000 -48.3167 65° Northeast 588 677 39,000  Level New York Oceanic (ODAPS)
05:40AM 43.6406 -48.1656 65° Northeast 600 690 39,000  Level FlightAware Transoceanic
05:41AM 43.7100 -47.9593 65° Northeast 600 690 39,000  Level FlightAware Transoceanic
05:42AM 43.7789 -47.7527 65° Northeast 600 690 39,000  Level FlightAware Transoceanic
05:43AM 43.8475 -47.5455 65° Northeast 600 690 39,000  Level FlightAware Transoceanic
05:44AM 43.9158 -47.3378 66° East 600 690 39,000  Level FlightAware Transoceanic
05:45AM 43.9836 -47.1297 66° East 600 690 39,000  Level FlightAware Transoceanic
05:46AM 44.0078 -47.0827 66° East 588 677 39,000  Level FlightAware Transoceanic
05:47AM 44.0744 -46.8754 66° East 588 677 39,000  Level FlightAware Transoceanic
05:48AM 44.1407 -46.6676 66° East 588 677 39,000  Level FlightAware Transoceanic
05:49AM 44.2066 -46.4594 66° East 588 677 39,000  Level FlightAware Transoceanic
05:50AM 44.2722 -46.2507 66° East 588 677 39,000  Level FlightAware Transoceanic
05:51AM 44.3373 -46.0415 67° East 588 677 39,000  Level FlightAware Transoceanic
05:52AM 44.4021 -45.8319 67° East 588 677 39,000  Level FlightAware Transoceanic
05:53AM 44.4665 -45.6218 67° East 588 677 39,000  Level FlightAware Transoceanic
05:54AM 44.5305 -45.4113 67° East 588 677 39,000  Level FlightAware Transoceanic
05:55AM 44.5941 -45.2002 67° East 588 677 39,000  Level FlightAware Transoceanic
05:56AM 44.6573 -44.9888 67° East 588 677 39,000  Level FlightAware Transoceanic
05:57AM 44.7201 -44.7768 67° East 588 677 39,000  Level FlightAware Transoceanic
05:58AM 44.7826 -44.5644 68° East 588 677 39,000  Level FlightAware Transoceanic
05:59AM 44.8446 -44.3516 68° East 588 677 39,000  Level FlightAware Transoceanic
06:00AM 44.9063 -44.1383 68° East 588 677 39,000  Level FlightAware Transoceanic
06:01AM 44.9675 -43.9245 68° East 588 677 39,000  Level FlightAware Transoceanic
06:02AM 45.0284 -43.7103 68° East 588 677 39,000  Level FlightAware Transoceanic
06:03AM 45.0888 -43.4956 68° East 588 677 39,000  Level FlightAware Transoceanic
06:04AM 45.1488 -43.2805 68° East 588 677 39,000  Level FlightAware Transoceanic
06:05AM 45.2085 -43.0649 69° East 588 677 39,000  Level FlightAware Transoceanic
06:06AM 45.2677 -42.8489 69° East 588 677 39,000  Level FlightAware Transoceanic
06:07AM 45.3265 -42.6324 69° East 588 677 39,000  Level FlightAware Transoceanic
06:08AM 45.3850 -42.4155 69° East 588 677 39,000  Level FlightAware Transoceanic
06:09AM 45.4430 -42.1981 69° East 588 677 39,000  Level FlightAware Transoceanic
06:10AM 45.5005 -41.9802 69° East 588 677 39,000  Level FlightAware Transoceanic
06:11AM 45.5577 -41.7620 70° East 588 677 39,000  Level FlightAware Transoceanic
06:12AM 45.6145 -41.5433 70° East 588 677 39,000  Level FlightAware Transoceanic
06:13AM 45.6708 -41.3241 70° East 588 677 39,000  Level FlightAware Transoceanic
06:14AM 45.7267 -41.1045 70° East 588 677 39,000  Level FlightAware Transoceanic
06:15AM 45.7822 -40.8845 70° East 588 677 39,000  Level FlightAware Transoceanic
06:16AM 45.8373 -40.6640 70° East 588 677 39,000  Level FlightAware Transoceanic
06:17AM 45.8920 -40.4431 71° East 588 677 39,000  Level FlightAware Transoceanic
06:18AM 45.9462 -40.2218 71° East 588 677 39,000  Level FlightAware Transoceanic
06:19AM 46.0000 -40.0000 70° East 588 677 39,000  Level FlightAware Transoceanic
06:20AM 46.0549 -39.7814 70° East 588 677 39,000  Level FlightAware Transoceanic
06:21AM 46.1094 -39.5624 70° East 588 677 39,000  Level FlightAware Transoceanic
06:22AM 46.1634 -39.3429 71° East 588 677 39,000  Level FlightAware Transoceanic
06:23AM 46.2171 -39.1231 71° East 588 677 39,000  Level FlightAware Transoceanic
06:24AM 46.2703 -38.9027 71° East 588 677 39,000  Level FlightAware Transoceanic
06:25AM 46.3231 -38.6820 71° East 588 677 39,000  Level FlightAware Transoceanic
06:26AM 46.3755 -38.4608 71° East 588 677 39,000  Level FlightAware Transoceanic
06:27AM 46.4274 -38.2393 71° East 588 677 39,000  Level FlightAware Transoceanic
06:28AM 46.4789 -38.0173 71° East 588 677 39,000  Level FlightAware Transoceanic
06:29AM 46.5300 -37.7948 72° East 588 677 39,000  Level FlightAware Transoceanic
06:30AM 46.5807 -37.5720 72° East 588 677 39,000  Level FlightAware Transoceanic
06:31AM 46.6309 -37.3487 72° East 588 677 39,000  Level FlightAware Transoceanic
06:32AM 46.6807 -37.1251 72° East 588 677 39,000  Level FlightAware Transoceanic
06:33AM 46.7300 -36.9010 72° East 588 677 39,000  Level FlightAware Transoceanic
06:34AM 46.7789 -36.6765 72° East 588 677 39,000  Level FlightAware Transoceanic
06:35AM 46.8274 -36.4516 73° East 588 677 39,000  Level FlightAware Transoceanic
06:36AM 46.8754 -36.2263 73° East 588 677 39,000  Level FlightAware Transoceanic
06:37AM 46.9230 -36.0006 73° East 588 677 39,000  Level FlightAware Transoceanic
06:38AM 46.9702 -35.7745 73° East 588 677 39,000  Level FlightAware Transoceanic
06:39AM 47.0169 -35.5480 73° East 588 677 39,000  Level FlightAware Transoceanic
06:40AM 47.0631 -35.3211 73° East 588 677 39,000  Level FlightAware Transoceanic
06:41AM 47.1089 -35.0938 74° East 588 677 39,000  Level FlightAware Transoceanic
06:42AM 47.1543 -34.8662 74° East 588 677 39,000  Level FlightAware Transoceanic
06:43AM 47.1992 -34.6381 74° East 588 677 39,000  Level FlightAware Transoceanic
06:44AM 47.2436 -34.4096 74° East 588 677 39,000  Level FlightAware Transoceanic
06:45AM 47.2876 -34.1808 74° East 588 677 39,000  Level FlightAware Transoceanic
06:46AM 47.3311 -33.9516 74° East 588 677 39,000  Level FlightAware Transoceanic
06:47AM 47.3742 -33.7220 75° East 588 677 39,000  Level FlightAware Transoceanic
06:48AM 47.4168 -33.4921 75° East 588 677 39,000  Level FlightAware Transoceanic
06:49AM 47.4590 -33.2618 75° East 588 677 39,000  Level FlightAware Transoceanic
06:50AM 47.5006 -33.0311 75° East 588 677 39,000  Level FlightAware Transoceanic
06:51AM 47.5419 -32.8000 75° East 588 677 39,000  Level FlightAware Transoceanic
06:52AM 47.5826 -32.5686 75° East 588 677 39,000  Level FlightAware Transoceanic
06:53AM 47.6230 -32.3368 76° East 588 677 39,000  Level FlightAware Transoceanic
06:54AM 47.6628 -32.1047 76° East 588 677 39,000  Level FlightAware Transoceanic
06:55AM 47.7021 -31.8722 76° East 588 677 39,000  Level FlightAware Transoceanic
06:56AM 47.7410 -31.6394 76° East 588 677 39,000  Level FlightAware Transoceanic
06:57AM 47.7794 -31.4062 76° East 588 677 39,000  Level FlightAware Transoceanic
06:58AM 47.8174 -31.1726 76° East 588 677 39,000  Level FlightAware Transoceanic
06:59AM 47.8549 -30.9388 77° East 588 677 39,000  Level FlightAware Transoceanic
07:00AM 47.8919 -30.7046 77° East 588 677 39,000  Level FlightAware Transoceanic
07:01AM 47.9284 -30.4701 77° East 588 677 39,000  Level FlightAware Transoceanic
07:02AM 47.9644 -30.2352 77° East 588 677 39,000  Level FlightAware Transoceanic
07:03AM 47.9979 -30.0140 77° East  Level FlightAware Approximate
07:04AM 48.0309 -29.7925 77° East  Level FlightAware Approximate
07:05AM 48.0281 -29.8064 78° East  Level FlightAware Approximate
07:06AM 48.0599 -29.5844 78° East  Level FlightAware Approximate
07:07AM 48.0912 -29.3621 78° East  Level FlightAware Approximate
07:08AM 48.1221 -29.1395 78° East  Level FlightAware Approximate
07:09AM 48.1526 -28.9167 78° East  Level FlightAware Approximate
07:10AM 48.1827 -28.6937 78° East  Level FlightAware Approximate
07:11AM 48.2123 -28.4703 79° East  Level FlightAware Approximate
07:12AM 48.2415 -28.2468 79° East  Level FlightAware Approximate
07:13AM 48.2702 -28.0229 79° East  Level FlightAware Approximate
07:14AM 48.2985 -27.7988 79° East  Level FlightAware Approximate
07:15AM 48.3264 -27.5745 79° East  Level FlightAware Approximate
07:16AM 48.3539 -27.3499 79° East  Level FlightAware Approximate
07:17AM 48.3809 -27.1251 80° East  Level FlightAware Approximate
07:18AM 48.4075 -26.9000 80° East  Level FlightAware Approximate
07:19AM 48.4336 -26.6748 80° East  Level FlightAware Approximate
07:20AM 48.4593 -26.4492 80° East  Level FlightAware Approximate
07:21AM 48.4845 -26.2235 80° East  Level FlightAware Approximate
07:22AM 48.5093 -25.9975 81° East  Level FlightAware Approximate
07:23AM 48.5337 -25.7713 81° East  Level FlightAware Approximate
07:24AM 48.5576 -25.5449 81° East  Level FlightAware Approximate
07:25AM 48.5811 -25.3183 81° East  Level FlightAware Approximate
07:26AM 48.6041 -25.0915 81° East  Level FlightAware Approximate
07:27AM 48.6267 -24.8645 81° East  Level FlightAware Approximate
07:28AM 48.6489 -24.6373 82° East  Level FlightAware Approximate
07:29AM 48.6706 -24.4098 82° East  Level FlightAware Approximate
07:30AM 48.6918 -24.1822 82° East  Level FlightAware Approximate
07:31AM 48.7126 -23.9544 82° East  Level FlightAware Approximate
07:32AM 48.7329 -23.7264 82° East  Level FlightAware Approximate
07:33AM 48.7528 -23.4982 82° East  Level FlightAware Approximate
07:34AM 48.7723 -23.2698 83° East  Level FlightAware Approximate
07:35AM 48.7913 -23.0413 83° East  Level FlightAware Approximate
07:36AM 48.8098 -22.8126 83° East  Level FlightAware Approximate
07:37AM 48.8279 -22.5837 83° East  Level FlightAware Approximate
07:38AM 48.8456 -22.3547 83° East  Level FlightAware Approximate
07:39AM 48.8628 -22.1255 83° East  Level FlightAware Approximate
07:40AM 48.8795 -21.8962 84° East  Level FlightAware Approximate
07:41AM 48.8957 -21.6667 84° East  Level FlightAware Approximate
07:42AM 48.9116 -21.4370 84° East  Level FlightAware Approximate
07:43AM 48.9269 -21.2072 84° East  Level FlightAware Approximate
07:44AM 48.9418 -20.9773 84° East  Level FlightAware Approximate
07:45AM 48.9563 -20.7472 84° East  Level FlightAware Approximate
07:46AM 48.9703 -20.5170 85° East  Level FlightAware Approximate
07:47AM 48.9838 -20.2867 85° East  Level FlightAware Approximate
07:48AM 48.9969 -20.0563 85° East  Level FlightAware Approximate
07:49AM 49.0320 -19.8320 74° East  Level FlightAware Approximate
07:50AM 49.0740 -19.6094 74° East  Level FlightAware Approximate
07:51AM 49.1155 -19.3865 74° East  Level FlightAware Approximate
07:52AM 49.1566 -19.1632 74° East  Level FlightAware Approximate
07:53AM 49.1973 -18.9395 74° East  Level FlightAware Approximate
07:54AM 49.2375 -18.7154 75° East  Level FlightAware Approximate
07:55AM 49.2773 -18.4910 75° East  Level FlightAware Approximate
07:56AM 49.3167 -18.2662 75° East  Level FlightAware Approximate
07:57AM 49.3556 -18.0411 75° East  Level FlightAware Approximate
07:58AM 49.3941 -17.8156 75° East  Level FlightAware Approximate
07:59AM 49.4322 -17.5898 75° East  Level FlightAware Approximate
08:00AM 49.4698 -17.3636 76° East  Level FlightAware Approximate
08:01AM 49.5070 -17.1371 76° East  Level FlightAware Approximate
08:02AM 49.5437 -16.9102 76° East  Level FlightAware Approximate
08:03AM 49.5800 -16.6829 76° East  Level FlightAware Approximate
08:04AM 49.6158 -16.4554 76° East  Level FlightAware Approximate
08:05AM 49.6512 -16.2275 76° East  Level FlightAware Approximate
08:06AM 49.6862 -15.9993 77° East  Level FlightAware Approximate
08:07AM 49.7207 -15.7708 77° East  Level FlightAware Approximate
08:08AM 49.7547 -15.5419 77° East  Level FlightAware Approximate
08:09AM 49.7883 -15.3127 77° East  Level FlightAware Approximate
08:10AM 49.8214 -15.0832 77° East  Level FlightAware Approximate
08:11AM 49.8541 -14.8534 78° East  Level FlightAware Approximate
08:12AM 49.8863 -14.6233 78° East  Level FlightAware Approximate
08:13AM 49.9180 -14.3928 78° East  Level FlightAware Approximate
08:14AM 49.9493 -14.1621 78° East  Level FlightAware Approximate
08:15AM 49.9801 -13.9311 78° East  Level FlightAware Approximate
08:16AM 50.0105 -13.6997 78° East  Level FlightAware Approximate
08:17AM 50.0404 -13.4681 79° East  Level FlightAware Approximate
08:18AM 50.0698 -13.2362 79° East  Level FlightAware Approximate
08:19AM 50.0988 -13.0040 79° East  Level FlightAware Approximate
08:20AM 50.1273 -12.7715 79° East  Level FlightAware Approximate
08:21AM 50.1553 -12.5388 79° East  Level FlightAware Approximate
08:22AM 50.1829 -12.3057 79° East  Level FlightAware Approximate
08:23AM 50.2100 -12.0725 80° East  Level FlightAware Approximate
08:24AM 50.2366 -11.8389 80° East  Level FlightAware Approximate
08:25AM 50.2628 -11.6051 80° East  Level FlightAware Approximate
08:26AM 50.2885 -11.3710 80° East  Level FlightAware Approximate
08:27AM 50.3137 -11.1367 80° East  Level FlightAware Approximate
08:27AM 49.8060 -10.2720 80° East 536 617 39,000  Level FlightAware
08:28AM 49.8340 -10.1070 75° East 537 618 39,000  Level FlightAware
08:28AM 49.8580 -9.9600 76° East 538 619 39,000  Level FlightAware
08:29AM 49.8870 -9.7890 75° East 537 618 39,000  Level FlightAware
08:30AM 49.9120 -9.6390 75° East 538 619 39,000  Level FlightAware
08:31AM 49.9350 -9.4960 76° East 539 620 39,000  Level FlightAware
08:31AM 49.9600 -9.3470 75° East 540 621 39,000  Level FlightAware
08:32AM 49.9880 -9.1740 76° East 538 619 39,000  Level FlightAware
08:33AM 50.0210 -8.9650 76° East 535 616 39,000  Level FlightAware
08:34AM 50.0420 -8.8290 76° East 532 612 39,000  Level FlightAware
08:34AM 50.0700 -8.6500 76° East 531 611 39,000  Level FlightAware
08:35AM 50.0930 -8.5030 76° East 531 611 39,000  Level FlightAware
08:36AM 50.1160 -8.3530 76° East 531 611 39,000  Level FlightAware
08:36AM 50.1410 -8.1860 77° East 530 610 39,000  Level FlightAware
08:37AM 50.1640 -8.0370 76° East 528 608 39,000  Level FlightAware
08:38AM 50.1880 -7.8760 77° East 526 605 39,000  Level FlightAware
08:38AM 50.2100 -7.7240 77° East 524 603 39,000  Level FlightAware
08:39AM 50.2300 -7.5830 77° East 520 598 39,000  Level FlightAware
08:40AM 50.2550 -7.4130 77° East 518 596 39,000  Level FlightAware
08:41AM 50.2750 -7.2700 78° East 516 594 39,000  Level FlightAware
08:41AM 50.2950 -7.1320 77° East 516 594 39,000  Level FlightAware
08:42AM 50.3210 -6.9460 78° East 514 592 39,000  Level FlightAware
08:43AM 50.3410 -6.8030 78° East 514 592 39,000  Level FlightAware
08:43AM 50.3640 -6.6360 78° East 516 594 39,000  Level FlightAware
08:44AM 50.3790 -6.5270 78° East 517 595 39,000  Level FlightAware
08:45AM 50.4110 -6.2860 78° East 517 595 39,000  Level FlightAware
08:46AM 50.4320 -6.1220 79° East 517 595 39,000  Level FlightAware
08:46AM 50.4510 -5.9780 78° East 518 596 39,000  Level FlightAware
08:47AM 50.4690 -5.8380 79° East 520 598 39,000  Level FlightAware
08:48AM 50.4910 -5.6720 78° East 522 601 39,000  Level FlightAware
08:49AM 50.5100 -5.5180 79° East 520 598 39,000  Level FlightAware
08:49AM 50.5290 -5.3690 79° East 520 598 39,000  Level FlightAware
08:50AM 50.5500 -5.1980 79° East 519 597 39,000  Level FlightAware
08:51AM 50.5680 -5.0510 79° East 518 596 39,000  Level FlightAware
08:51AM 50.5850 -4.9080 79° East 516 594 39,000  Level FlightAware
08:52AM 50.6040 -4.7460 79° East 514 592 39,000  Level FlightAware
08:53AM 50.6238 -4.5806 79° East 513 590 39,000  Level FlightAware ADS-B
08:53AM 50.6409 -4.4339 80° East 510 587 39,000  Level FlightAware ADS-B
08:54AM 50.6533 -4.3268 80° East 507 583 39,000  Level FlightAware ADS-B
08:55AM 50.6673 -4.2035 80° East 505 581 39,000  Level FlightAware ADS-B
08:55AM 50.6826 -4.0689 80° East 501 577 39,000  Level FlightAware ADS-B
08:56AM 50.6921 -3.9839 80° East 497 572 39,000  Level FlightAware ADS-B
08:56AM 50.7078 -3.8430 80° East 497 572 39,000  Level FlightAware ADS-B
08:57AM 50.7240 -3.6910 80° East 497 572 39,000  Level FlightAware
08:57AM 50.7259 -3.6778 77° East 497 572 39,000  Level FlightAware ADS-B
08:58AM 50.7395 -3.5529 80° East 497 572 39,000  Level FlightAware ADS-B
08:58AM 50.7523 -3.4334 80° East 498 573 39,000  Level FlightAware ADS-B
08:59AM 50.7628 -3.3340 80° East 498 573 39,000  Level FlightAware ADS-B
08:59AM 50.7757 -3.2107 81° East 500 575 39,000  Level FlightAware ADS-B
09:00AM 50.7902 -3.0717 81° East 502 578 39,000  Level FlightAware ADS-B
09:00AM 50.8024 -2.9533 81° East 500 575 39,000  Level FlightAware ADS-B
09:01AM 50.8121 -2.8581 81° East 499 574 39,000  Level FlightAware ADS-B
09:01AM 50.8221 -2.7589 81° East 497 572 39,000  Level FlightAware ADS-B
09:02AM 50.8347 -2.6330 81° East 494 568 39,000  Level FlightAware ADS-B
09:02AM 50.8457 -2.5208 81° East 493 567 39,000  Level FlightAware ADS-B
09:03AM 50.8590 -2.3866 81° East 491 565 39,000  Level FlightAware ADS-B
09:03AM 50.8683 -2.2898 81° East 489 563 39,000  Level FlightAware ADS-B
09:04AM 50.8737 -2.2330 81° East 489 563 39,000  Level FlightAware ADS-B
09:04AM 50.8851 -2.1141 81° East 488 562 39,000  Level FlightAware ADS-B
09:05AM 50.8944 -2.0155 81° East 487 560 39,000  Level FlightAware ADS-B
09:05AM 50.8993 -1.9631 82° East 487 560 39,000  Level FlightAware ADS-B
09:06AM 50.9110 -1.8378 82° East 486 559 39,000  Level FlightAware ADS-B
09:06AM 50.9209 -1.7304 82° East 486 559 39,000  Level FlightAware ADS-B
09:07AM 50.9286 -1.6448 82° East 485 558 39,000  Level FlightAware ADS-B
09:07AM 50.9415 -1.5002 82° East 485 558 39,000  Level FlightAware ADS-B
09:08AM 50.9511 -1.3934 82° East 486 559 39,000  Level FlightAware ADS-B
09:08AM 50.9591 -1.3034 82° East 487 560 39,000  Level FlightAware ADS-B
09:08AM 50.9619 -1.2720 82° East 488 562 39,000  Level FlightAware ADS-B
09:09AM 50.9727 -1.1481 82° East 490 564 39,000  Level FlightAware ADS-B
09:09AM 50.9820 -1.0407 82° East 491 565 39,000  Level FlightAware ADS-B
09:10AM 50.9908 -0.9372 82° East 494 568 39,000  Level FlightAware ADS-B
09:10AM 50.9971 -0.8631 82° East 494 568 39,000  Level FlightAware ADS-B
09:10AM 51.0001 -0.8276 82° East 495 570 39,000  Level FlightAware ADS-B
09:11AM 51.0092 -0.7191 82° East 498 573 39,000  Level FlightAware ADS-B
09:11AM 51.0179 -0.6133 83° East 500 575 39,000  Level FlightAware ADS-B
09:12AM 51.0281 -0.4884 83° East 500 575 39,000  Level FlightAware ADS-B
09:13AM 51.0386 -0.3574 83° East 499 574 39,000  Level FlightAware ADS-B
09:13AM 51.0483 -0.2358 83° East 498 573 39,000  Level FlightAware ADS-B
09:14AM 51.0557 -0.1404 83° East 497 572 39,000  Level FlightAware ADS-B
09:14AM 51.0637 -0.0378 83° East 497 572 39,000  Level FlightAware ADS-B
09:14AM 51.0669 0.0026 83° East 496 571 39,000  Level FlightAware ADS-B
09:15AM 51.0760 0.1224 83° East 495 570 39,000  Level FlightAware ADS-B
09:15AM 51.0832 0.2180 83° East 495 570 39,000  Level FlightAware ADS-B
09:16AM 51.0916 0.3306 83° East 494 568 39,000  Level FlightAware ADS-B
09:16AM 51.1011 0.4610 83° East 495 570 39,000  Level FlightAware ADS-B
09:17AM 51.1103 0.5880 83° East 495 570 39,000  Level FlightAware ADS-B
09:17AM 51.1173 0.6872 84° East 496 571 39,000  Level FlightAware ADS-B
09:17AM 51.1183 0.7194 87° East 501 577 39,000  Level FlightAware ADS-B
09:18AM 51.1168 0.7561 94° East 509 586 39,000  Level FlightAware ADS-B
09:18AM 51.1145 0.7820 98° East 512 589 39,000  Level FlightAware ADS-B
09:18AM 51.1084 0.8409 99° East 512 589 39,000  Level FlightAware ADS-B
09:19AM 51.0951 0.9723 99° East 511 588 39,000  Level FlightAware ADS-B
09:19AM 51.0862 1.0758 98° East 508 585 39,000  Level FlightAware ADS-B
09:19AM 51.0813 1.1379 97° East 507 583 39,000  Level FlightAware ADS-B
09:20AM 51.0742 1.2325 97° East 505 581 39,000  Level FlightAware ADS-B
09:20AM 51.0673 1.3272 97° East 504 580 39,000  Level FlightAware ADS-B
09:21AM 51.0617 1.3996 97° East 506 582 39,000  Level FlightAware ADS-B
09:21AM 51.0420 1.5930 99° East 510 587 39,000  Level FlightAware
09:22AM 51.0250 1.7260 101° East 514 592 39,000  Level FlightAware
09:22AM 51.0122 1.8174 103° East 516 594 39,000  Level FlightAware ADS-B
09:23AM 50.9924 1.9560 103° East 519 597 39,000  Level FlightAware ADS-B
09:23AM 50.9820 2.0274 103° East 520 598 39,000  Level FlightAware ADS-B
09:24AM 50.9640 2.1495 103° East 522 601 39,000  Level FlightAware ADS-B
09:25AM 50.9457 2.2733 103° East 523 602 39,000  Level FlightAware ADS-B
09:25AM 50.9170 2.4674 103° East 524 603 39,000  Level FlightAware ADS-B
09:26AM 50.8870 2.6680 103° East 531 611 39,000  Level FlightAware
09:27AM 50.8630 2.8290 103° East 533 613 39,000  Level FlightAware
09:28AM 50.8370 3.0000 103° East 534 615 39,000 -360 Level FlightAware
09:28AM 50.8140 3.1510 103° East 531 611 38,500 -1,320 Descending FlightAware
09:29AM 50.7900 3.3050 104° East 524 603 37,200 -1,800 Descending FlightAware
09:30AM 50.7630 3.4780 104° East 511 588 35,800 -1,980 Descending FlightAware
09:31AM 50.7400 3.6210 104° East 504 580 34,400 -2,940 Descending FlightAware
09:31AM 50.7170 3.7690 104° East 522 601 31,900 -3,180 Descending FlightAware
09:32AM 50.6900 3.9360 104° East 525 604 29,900 -2,220 Descending FlightAware
09:33AM 50.6670 4.0790 104° East 515 593 28,800 -1,620 Descending FlightAware
09:33AM 50.6440 4.2180 105° East 503 579 27,800 -1,680 Descending FlightAware
09:34AM 50.6180 4.3740 105° East 494 568 26,500 -1,800 Descending FlightAware
09:35AM 50.5930 4.5270 104° East 483 556 25,300 -1,680 Descending FlightAware
09:35AM 50.5710 4.6570 105° East 474 545 24,300 -1,740 Descending FlightAware
09:36AM 50.5460 4.8040 105° East 471 542 22,900 -1,740 Descending FlightAware
09:37AM 50.5250 4.9310 105° East 464 534 21,900 -1,500 Descending FlightAware
09:37AM 50.5030 5.0580 105° East 453 521 20,900 -1,560 Descending FlightAware
09:38AM 50.4770 5.2070 105° East 434 499 19,700 -1,680 Descending FlightAware
09:39AM 50.4560 5.3240 106° East 425 489 18,600 -1,800 Descending FlightAware
09:40AM 50.4360 5.4570 103° East 416 479 17,200 -1,980 Descending FlightAware
09:40AM 50.4190 5.5910 101° East 408 470 15,700 -1,920 Descending FlightAware
09:41AM 50.4050 5.7060 101° East 401 461 14,500 -1,980 Descending FlightAware
09:42AM 50.3910 5.8180 101° East 398 458 13,100 -2,100 Descending FlightAware
09:42AM 50.3750 5.9380 102° East 398 458 11,600 -1,800 Descending FlightAware
09:43AM 50.3600 6.0520 102° East 384 442 10,600 -1,140 Descending FlightAware
09:44AM 50.3450 6.1680 101° East 357 411 10,000 -480 Descending FlightAware
09:45AM 50.3310 6.2690 102° East 346 398 10,000  Level FlightAware
09:45AM 50.3160 6.3770 102° East 340 391 10,000  Level FlightAware
09:46AM 50.3030 6.4750 102° East 345 397 10,000  Level FlightAware
09:46AM 50.2940 6.5420 102° East 333 383 10,000  Level FlightAware
09:47AM 50.2860 6.6020 102° East 319 367 10,000 -360 Level FlightAware
09:47AM 50.2770 6.6660 102° East 300 345 9,700 -840 Descending FlightAware
09:48AM 50.2710 6.7090 102° East 299 344 9,300 -1,200 Descending FlightAware
09:48AM 50.2670 6.7390 102° East 301 346 9,000 -1,380 Descending FlightAware
09:48AM 50.2810 6.6370 282° West 303 349 8,300 -780 Descending FlightAware
09:49AM 50.2750 6.6830 102° East 303 349 8,300 -1,080 Level FlightAware
09:49AM 50.2440 6.9050 102° East 303 349 7,400 -1,440 Descending FlightAware
09:50AM 50.2360 6.9640 102° East 298 343 7,000 -420 Descending FlightAware
09:50AM 50.2290 7.0160 102° East 298 343 7,000 -720 Level FlightAware
09:51AM 50.2100 7.1440 103° East 5,600 -900 Descending FlightAware
09:53AM 50.1430 7.3330 119° Southeast 268 308 4,600 -420 Descending FlightAware
09:54AM 50.1210 7.3860 123° Southeast 263 303 4,600  Level FlightAware
09:56AM 49.9487 7.2639 128° Southeast  Level Estimated
09:57AM 49.9487 7.2639 128° Southeast  Level Estimated
09:58AM 49.9487 7.2639 128° Southeast  Level Estimated
09:59AM 49.9487 7.2639 128° Southeast  Level Estimated
10:00AM 49.9487 7.2639 128° Southeast  Level Estimated
10:01AM 49.9487 7.2639 128° Southeast  Level Estimated
10:02AM 49.9487 7.2639 128° Southeast  Level Estimated
10:03AM 49.9487 7.2639 128° Southeast  Level Estimated
10:04AM 49.9487 7.2639 128° Southeast  Level Estimated
10:05AM 49.9487 7.2639 128° Southeast  Level Estimated
10:06AM 49.9487 7.2639 128° Southeast  Level Estimated
10:07AM 49.9487 7.2639 128° Southeast  Level Estimated
10:08AM 49.9487 7.2639 128° Southeast  Level Estimated
10:09AM 49.9487 7.2639 128° Southeast  Level Estimated
10:10AM 49.9487 7.2639 128° Southeast  Level Estimated